Data for 01/02/2010

Time Sea-Level Adjusted Pressure Absolute Pressure Temperature Relative Humidity Dew Point   
(mb) (inHg) (mb) (inHg) (C) (F) (%) (C) (F)
00:05 1017 30.03 846 24.98 -0.7 30.8 78 -4.1 24.7
00:10 1017 30.03 846 24.98 -0.2 31.6 77 -3.8 25.2
00:15 1016 30 846 24.98 -0.2 31.6 76 -3.9 24.9
00:20 1016 30 846 24.98 -0.3 31.5 76 -4 24.8
00:25 1016 30 845 24.95 -0.3 31.4 76 -4 24.7
00:30 1016 30 845 24.95 -0.1 31.8 75 -4 24.8
00:35 1016 30 846 24.98 0.1 32.2 74 -4 24.8
00:40 1016 30 846 24.98 0.1 32.2 74 -3.9 24.9
00:45 1016 30 846 24.98 0.1 32.2 74 -3.9 24.9
00:50 1016 30 846 24.98 0.3 32.5 73 -3.9 24.9
00:55 1016 30 846 24.98 0.6 33.1 72 -3.9 25
01:00 1016 30 846 24.98 0.7 33.3 72 -3.8 25.1
01:05 1016 30 845 24.95 0.9 33.6 71 -3.9 25
01:10 1016 30 845 24.95 0.9 33.6 71 -3.8 25.2
01:15 1016 30 845 24.95 0.9 33.7 70 -3.9 25
01:20 1016 30 845 24.95 1 33.8 70 -3.8 25.2
01:25 1016 30 846 24.98 1 33.8 71 -3.7 25.3
01:30 1016 30 846 24.98 1 33.8 70 -3.8 25.2
01:35 1016 30 845 24.95 0.9 33.5 71 -3.9 25
01:40 1016 30 845 24.95 0.7 33.2 72 -3.8 25.2
01:45 1016 30 845 24.95 0.6 33 72 -4 24.8
01:50 1016 30 845 24.95 0.4 32.8 72 -4 24.8
01:55 1016 30 846 24.98 0.4 32.6 73 -4 24.8
02:00 1016 30 845 24.95 0.4 32.7 72 -4 24.8
02:05 1016 30 845 24.95 -0.1 31.8 76 -3.9 24.9
02:10 1016 30 846 24.98 -0.4 31.3 77 -4 24.8
02:15 1016 30 846 24.98 -0.5 31.1 78 -4 24.9
02:20 1016 30 846 24.98 -0.6 30.9 78 -4 24.8
02:25 1016 30 846 24.98 -0.3 31.4 76 -4.1 24.7
02:30 1017 30.03 846 24.98 -0 32 74 -4.1 24.6
02:35 1016 30 846 24.98 0.1 32.2 73 -4.2 24.5
02:40 1016 30 846 24.98 0.1 32.2 73 -4.2 24.4
02:45 1017 30.03 846 24.98 -0.1 31.9 74 -4.2 24.5
02:50 1017 30.03 846 24.98 -0.6 30.9 75 -4.5 24
02:55 1017 30.03 846 24.98 -1.4 29.4 78 -4.7 23.5
03:00 1017 30.03 846 24.98 -2.4 27.6 81 -5.2 22.6
03:05 1017 30.03 846 24.98 -2.9 26.8 83 -5.5 22.1
03:10 1017 30.03 846 24.98 -2.5 27.5 82 -5.3 22.5
03:15 1017 30.03 846 24.98 -0.7 30.7 75 -4.6 23.8
03:20 1017 30.03 846 24.98 -0.4 31.3 75 -4.2 24.4
03:25 1017 30.03 846 24.98 -0.3 31.4 74 -4.4 24.1
03:30 1017 30.03 846 24.98 -0.1 31.9 73 -4.4 24
03:35 1017 30.03 846 24.98 0.4 32.7 70 -4.4 24.1
03:40 1017 30.03 846 24.98 0.1 32.2 72 -4.3 24.2
03:45 1017 30.03 846 24.98 0.3 32.5 73 -4 24.8
03:50 1017 30.03 846 24.98 0.3 32.5 72 -4.2 24.4
03:55 1017 30.03 846 24.98 0.5 32.9 71 -4.1 24.5
04:00 1017 30.03 846 24.98 0.5 33 69 -4.5 23.9
04:05 1017 30.03 846 24.98 -0.2 31.6 72 -4.7 23.5
04:10 1017 30.03 846 24.98 -0.9 30.4 77 -4.4 24.1
04:15 1017 30.03 846 24.98 -0.9 30.4 79 -4.1 24.7
04:20 1017 30.03 846 24.98 -0.7 30.7 76 -4.5 23.9
04:25 1017 30.03 846 24.98 -0.3 31.5 74 -4.3 24.2
04:30 1017 30.03 846 24.98 -0.2 31.6 75 -4.1 24.5
04:35 1017 30.03 846 24.98 -0.2 31.6 71 -4.8 23.4
04:40 1017 30.03 846 24.98 -0.6 30.9 73 -4.8 23.4
04:45 1017 30.03 846 24.98 -0.4 31.4 73 -4.6 23.7
04:50 1017 30.03 846 24.98 -0.9 30.3 75 -4.9 23.2
04:55 1017 30.03 846 24.98 -1.6 29.2 77 -5.1 22.8
05:00 1017 30.03 846 24.98 -1.5 29.3 75 -5.4 22.2
05:05 1017 30.03 846 24.98 -0.7 30.7 70 -5.6 22
05:10 1017 30.03 846 24.98 0.1 32.1 67 -5.4 22.3
05:15 1017 30.03 846 24.98 0.4 32.6 67 -5.1 22.8
05:20 1017 30.03 846 24.98 -0.2 31.7 70 -5.1 22.8
05:25 1017 30.03 846 24.98 -0.5 31.1 69 -5.5 22.1
05:30 1017 30.03 846 24.98 -0 31.9 68 -5.2 22.6
05:35 1017 30.03 846 24.98 0.2 32.3 67 -5.2 22.7
05:40 1017 30.03 846 24.98 0.4 32.7 67 -5 23.1
05:45 1017 30.03 846 24.98 0.6 33.1 66 -5 23
05:50 1017 30.03 846 24.98 0.8 33.4 66 -5 23.1
05:55 1017 30.03 846 24.98 0.9 33.6 65 -4.9 23.2
06:00 1017 30.03 846 24.98 0.8 33.4 66 -4.8 23.3
06:05 1017 30.03 846 24.98 0.7 33.2 66 -4.9 23.2
06:10 1017 30.03 846 24.98 0.7 33.3 65 -5 23
06:15 1017 30.03 846 24.98 0.9 33.6 65 -5 23
06:20 1017 30.03 846 24.98 0.9 33.5 65 -4.9 23.1
06:25 1017 30.03 846 24.98 0.9 33.6 65 -5 23.1
06:30 1017 30.03 846 24.98 0.9 33.7 65 -5 23
06:35 1017 30.03 847 25.01 1.1 33.9 63 -5.2 22.7
06:40 1017 30.03 847 25.01 1.2 34.1 63 -5.1 22.8
06:45 1017 30.03 847 25.01 1.2 34.2 63 -5.1 22.8
06:50 1017 30.03 847 25.01 1.3 34.3 62 -5.1 22.7
06:55 1018 30.06 847 25.01 1.4 34.4 62 -5.1 22.7
07:00 1018 30.06 847 25.01 1.4 34.6 62 -5.2 22.7
07:05 1018 30.06 847 25.01 1.5 34.6 61 -5.2 22.6
07:10 1018 30.06 847 25.01 1.6 34.9 60 -5.3 22.5
07:15 1018 30.06 847 25.01 1.6 34.9 61 -5.1 22.8
07:20 1018 30.06 847 25.01 1.5 34.7 62 -5 23
07:25 1018 30.06 847 25.01 1.4 34.5 62 -5.1 22.8
07:30 1018 30.06 847 25.01 1.5 34.7 63 -4.9 23.3
07:35 1018 30.06 847 25.01 1.4 34.5 63 -4.8 23.3
07:40 1018 30.06 847 25.01 1.4 34.5 63 -5 23
07:45 1018 30.06 847 25.01 1.3 34.4 63 -5 23
07:50 1018 30.06 847 25.01 1.2 34.1 64 -4.9 23.1
07:55 1018 30.06 847 25.01 1 33.8 64 -5 23.1
08:00 1018 30.06 847 25.01 0.9 33.6 65 -5 23
08:05 1018 30.06 847 25.01 0.8 33.4 65 -5.1 22.8
08:10 1018 30.06 847 25.01 0.8 33.4 64 -5.3 22.5
08:15 1018 30.06 847 25.01 0.8 33.4 63 -5.5 22
08:20 1018 30.06 847 25.01 0.9 33.7 61 -5.7 21.8
08:25 1018 30.06 847 25.01 1.1 33.9 60 -5.7 21.7
08:30 1018 30.06 847 25.01 1.4 34.6 57 -6.1 21.1
08:35 1018 30.06 847 25.01 2 35.6 56 -5.9 21.3
08:40 1018 30.06 847 25.01 2.1 35.8 55 -5.9 21.3
08:45 1018 30.06 847 25.01 2.1 35.8 55 -5.9 21.3
08:50 1018 30.06 848 25.04 2.2 35.9 55 -6.1 21.1
08:55 1019 30.09 848 25.04 2.2 35.9 54 -6.1 21
09:00 1019 30.09 848 25.04 2.2 35.9 55 -6 21.2
09:05 1019 30.09 848 25.04 2.1 35.9 57 -5.6 21.9
09:10 1019 30.09 848 25.04 1.9 35.3 59 -5.4 22.3
09:15 1019 30.09 848 25.04 1.6 34.9 60 -5.4 22.2
09:20 1019 30.09 848 25.04 1.6 34.8 59 -5.7 21.8
09:25 1019 30.09 848 25.04 1.7 35.1 57 -5.9 21.5
09:30 1019 30.09 848 25.04 1.9 35.4 56 -5.9 21.5
09:35 1019 30.09 849 25.07 2.1 35.8 56 -5.8 21.5
09:40 1019 30.09 849 25.07 2.4 36.2 54 -5.9 21.3
09:45 1019 30.09 849 25.07 2.5 36.5 55 -5.6 21.8
09:50 1020 30.12 849 25.07 2.6 36.7 55 -5.6 21.8
09:55 1020 30.12 849 25.07 2.4 36.3 56 -5.4 22.2
10:00 1020 30.12 849 25.07 2.4 36.2 57 -5.4 22.3
10:05 1020 30.12 849 25.07 2.3 36.1 57 -5.3 22.5
10:10 1020 30.12 849 25.07 2.3 36.1 59 -4.8 23.3
10:15 1020 30.12 849 25.07 2.2 36 57 -5.5 22
10:20 1020 30.12 849 25.07 2.3 36.2 56 -5.5 22.1
10:25 1020 30.12 849 25.07 2.5 36.4 56 -5.4 22.2
10:30 1020 30.12 849 25.07 2.6 36.7 56 -5.4 22.4
10:35 1020 30.12 849 25.07 3 37.3 54 -5.6 22
10:40 1020 30.12 849 25.07 2.9 37.2 55 -5.3 22.5
10:45 1020 30.12 849 25.07 3.4 38.2 53 -5.1 22.7
10:50 1020 30.12 849 25.07 3.5 38.3 54 -4.9 23.1
10:55 1020 30.12 849 25.07 3.3 38 55 -5 23.1
11:00 1020 30.12 849 25.07 3.2 37.8 54 -5.2 22.6
11:05 1020 30.12 849 25.07 3 37.3 56 -5.1 22.9
11:10 1020 30.12 849 25.07 3 37.3 55 -5.2 22.6
11:15 1020 30.12 849 25.07 3.1 37.6 53 -5.5 22
11:20 1020 30.12 849 25.07 2.6 36.6 54 -5.8 21.6
11:25 1020 30.12 849 25.07 2.7 36.9 53 -5.8 21.5
11:30 1020 30.12 849 25.07 3.1 37.6 52 -5.8 21.5
11:35 1020 30.12 849 25.07 3.4 38.2 51 -5.8 21.5
11:40 1020 30.12 849 25.07 3.5 38.3 51 -5.8 21.6
11:45 1020 30.12 849 25.07 3.8 38.8 49 -6.1 21.1
11:50 1020 30.12 849 25.07 4.3 39.7 49 -5.6 21.9
11:55 1020 30.12 849 25.07 4.2 39.5 49 -5.6 21.9
12:00 1020 30.12 849 25.07 4.9 40.9 46 -5.8 21.5
12:05 1020 30.12 849 25.07 5.3 41.5 47 -5.2 22.7
12:10 1020 30.12 849 25.07 5.1 41.1 47 -5.2 22.6
12:15 1020 30.12 849 25.07 5.3 41.6 44 -6 21.2
12:20 1020 30.12 849 25.07 6 42.8 43 -5.7 21.8
12:25 1020 30.12 849 25.07 6 42.8 45 -5 23
12:30 1020 30.12 849 25.07 5 41.1 48 -5.1 22.8
12:35 1020 30.12 849 25.07 4.7 40.4 49 -5.2 22.6
12:40 1020 30.12 849 25.07 4.6 40.3 49 -5.2 22.6
12:45 1020 30.12 849 25.07 4.8 40.7 48 -5.2 22.6
12:50 1020 30.12 849 25.07 4.7 40.4 48 -5.3 22.4
12:55 1020 30.12 849 25.07 4.6 40.3 49 -5.1 22.8
13:00 1020 30.12 849 25.07 4.8 40.6 50 -4.8 23.3
13:05 1020 30.12 849 25.07 5.1 41.2 49 -4.8 23.3
13:10 1019 30.09 849 25.07 5.1 41.2 48 -5 23
13:15 1019 30.09 849 25.07 5.6 42 46 -5.1 22.7
13:20 1019 30.09 848 25.04 5.9 42.6 45 -5.1 22.9
13:25 1019 30.09 848 25.04 6 42.7 46 -4.8 23.3
13:30 1019 30.09 849 25.07 6.2 43.1 45 -4.7 23.5
13:35 1019 30.09 849 25.07 6 42.7 47 -4.6 23.8
13:40 1019 30.09 849 25.07 5.9 42.6 47 -4.5 24
13:45 1019 30.09 849 25.07 5.9 42.7 47 -4.6 23.8
13:50 1019 30.09 849 25.07 5.7 42.3 48 -4.5 23.8
13:55 1019 30.09 849 25.07 5.5 42 49 -4.4 24.1
14:00 1019 30.09 849 25.07 5.4 41.7 49 -4.5 23.9
14:05 1019 30.09 848 25.04 5.1 41.2 50 -4.4 24
14:10 1019 30.09 848 25.04 5.1 41.3 48 -5 23
14:15 1019 30.09 849 25.07 5.3 41.5 48 -4.9 23.1
14:20 1019 30.09 849 25.07 5.2 41.4 47 -5.2 22.6
14:25 1020 30.12 849 25.07 4.9 40.8 49 -4.9 23.1
14:30 1020 30.12 849 25.07 4.8 40.6 48 -5.3 22.4
14:35 1020 30.12 849 25.07 4.6 40.4 49 -5 22.9
14:40 1020 30.12 849 25.07 4.5 40.1 49 -5.3 22.5
14:45 1020 30.12 849 25.07 4.5 40.1 48 -5.5 22.1
14:50 1020 30.12 849 25.07 4.4 39.9 49 -5.5 22.1
14:55 1020 30.12 849 25.07 4.3 39.8 49 -5.4 22.2
15:00 1020 30.12 849 25.07 4.3 39.7 49 -5.6 22
15:05 1020 30.12 849 25.07 4.3 39.8 50 -5.3 22.5
15:10 1020 30.12 849 25.07 4.2 39.5 50 -5.2 22.7
15:15 1020 30.12 849 25.07 4 39.3 51 -5.1 22.9
15:20 1020 30.12 849 25.07 4 39.2 52 -5 23
15:25 1020 30.12 849 25.07 4 39.2 51 -5.1 22.8
15:30 1020 30.12 849 25.07 4 39.3 51 -5.1 22.8
15:35 1020 30.12 849 25.07 4.1 39.4 53 -4.6 23.7
15:40 1020 30.12 849 25.07 3.9 39 55 -4.3 24.2
15:45 1020 30.12 849 25.07 3.7 38.7 56 -4.3 24.3
15:50 1020 30.12 849 25.07 3.6 38.4 57 -4.1 24.6
15:55 1020 30.12 850 25.1 3.4 38.1 58 -4.1 24.5
16:00 1020 30.12 850 25.1 3.2 37.8 58 -4.2 24.4
16:05 1020 30.12 850 25.1 3.1 37.5 60 -4 24.7
16:10 1020 30.12 850 25.1 3 37.3 61 -3.9 25
16:15 1020 30.12 850 25.1 2.9 37.2 61 -3.9 24.9
16:20 1020 30.12 850 25.1 2.8 37.1 62 -3.8 25.2
16:25 1020 30.12 850 25.1 2.7 36.9 62 -3.8 25.1
16:30 1021 30.15 850 25.1 2.6 36.8 62 -3.9 25
16:35 1021 30.15 850 25.1 2.5 36.5 63 -3.7 25.3
16:40 1021 30.15 850 25.1 2.4 36.3 63 -4 24.8
16:45 1021 30.15 850 25.1 2.4 36.3 63 -4 24.9
16:50 1021 30.15 850 25.1 2.6 36.6 62 -4.1 24.6
16:55 1021 30.15 850 25.1 2.6 36.6 62 -4 24.8
17:00 1021 30.15 850 25.1 2.3 36.2 64 -3.8 25.2
17:05 1021 30.15 850 25.1 1.6 34.9 69 -3.5 25.7
17:10 1021 30.15 850 25.1 1.3 34.3 67 -4.1 24.6
17:15 1021 30.15 850 25.1 1.4 34.6 67 -4 24.8
17:20 1021 30.15 850 25.1 1.5 34.6 68 -3.9 25
17:25 1021 30.15 850 25.1 1.5 34.6 68 -3.9 25
17:30 1021 30.15 850 25.1 1.5 34.7 66 -4.1 24.6
17:35 1021 30.15 850 25.1 1.6 35 65 -4.2 24.4
17:40 1021 30.15 850 25.1 1.8 35.2 65 -4.2 24.5
17:45 1021 30.15 850 25.1 1.8 35.3 66 -4 24.9
17:50 1021 30.15 850 25.1 2 35.5 64 -4 24.7
17:55 1021 30.15 850 25.1 2.2 35.9 64 -3.9 25
18:00 1021 30.15 850 25.1 2.1 35.8 65 -3.7 25.4
18:05 1021 30.15 850 25.1 2.2 36 64 -3.9 24.9
18:10 1021 30.15 850 25.1 2.3 36.2 63 -4.1 24.6
18:15 1021 30.15 851 25.13 2.3 36.1 63 -4.1 24.7
18:20 1021 30.15 851 25.13 2.3 36.1 63 -4.1 24.6
18:25 1021 30.15 851 25.13 2.3 36.1 63 -4 24.8
18:30 1021 30.15 851 25.13 2.2 36 64 -3.8 25.1
18:35 1022 30.18 851 25.13 1.8 35.3 66 -3.9 24.9
18:40 1022 30.18 851 25.13 1.7 35 66 -4 24.7
18:45 1022 30.18 851 25.13 1.5 34.8 65 -4.2 24.4
18:50 1022 30.18 851 25.13 1.4 34.6 65 -4.5 23.8
18:55 1022 30.18 851 25.13 1.4 34.6 65 -4.3 24.2
19:00 1022 30.18 851 25.13 1.4 34.5 65 -4.5 23.9
19:05 1022 30.18 851 25.13 1.3 34.3 65 -4.6 23.7
19:10 1022 30.18 851 25.13 1.3 34.4 64 -4.7 23.5
19:15 1022 30.18 851 25.13 1.3 34.4 65 -4.5 23.9
19:20 1022 30.18 851 25.13 1.4 34.5 64 -4.6 23.6
19:25 1022 30.18 851 25.13 1.6 34.8 64 -4.5 23.8
19:30 1022 30.18 851 25.13 1.4 34.6 64 -4.6 23.8
19:35 1022 30.18 851 25.13 1.5 34.6 63 -4.7 23.5
19:40 1022 30.18 851 25.13 1.7 35 63 -4.7 23.5
19:45 1022 30.18 851 25.13 1.6 34.9 63 -4.6 23.7
19:50 1022 30.18 851 25.13 1.1 34 65 -4.7 23.6
19:55 1022 30.18 851 25.13 0.8 33.5 65 -5 22.9
20:00 1022 30.18 851 25.13 0.8 33.5 65 -5 23
20:05 1022 30.18 851 25.13 0.8 33.4 65 -5 22.9
20:10 1022 30.18 851 25.13 0.7 33.3 65 -5.2 22.7
20:15 1022 30.18 852 25.16 0.9 33.6 65 -5.1 22.9
20:20 1022 30.18 852 25.16 0.9 33.7 63 -5.3 22.4
20:25 1022 30.18 852 25.16 0.9 33.6 64 -5.2 22.6
20:30 1022 30.18 852 25.16 1.1 33.9 63 -5.1 22.8
20:35 1022 30.18 852 25.16 1.1 33.9 64 -5 23
20:40 1022 30.18 852 25.16 1 33.8 63 -5.2 22.6
20:45 1022 30.18 852 25.16 1.1 33.9 63 -5.2 22.7
20:50 1023 30.21 852 25.16 1.4 34.5 62 -5.1 22.8
20:55 1023 30.21 852 25.16 1.6 34.9 61 -5 23
21:00 1023 30.21 852 25.16 1.7 35 62 -4.9 23.1
21:05 1023 30.21 852 25.16 1.7 35 61 -5.1 22.8
21:10 1023 30.21 852 25.16 1.5 34.7 62 -5.1 22.8
21:15 1023 30.21 852 25.16 1.5 34.7 63 -4.9 23.3
21:20 1023 30.21 852 25.16 1.5 34.7 61 -5.1 22.8
21:25 1023 30.21 852 25.16 1.7 35 62 -5 23.1
21:30 1023 30.21 852 25.16 1.8 35.2 61 -4.9 23.2
21:35 1023 30.21 852 25.16 1.8 35.2 60 -5.1 22.9
21:40 1023 30.21 852 25.16 1.8 35.3 61 -5 23.1
21:45 1023 30.21 852 25.16 1.9 35.4 60 -5.1 22.8
21:50 1023 30.21 852 25.16 1.8 35.3 62 -4.7 23.5
21:55 1023 30.21 852 25.16 1.7 35.1 62 -4.8 23.3
22:00 1023 30.21 852 25.16 1.5 34.8 62 -4.9 23.1
22:05 1023 30.21 852 25.16 1.5 34.8 62 -5 23
22:10 1023 30.21 852 25.16 1.5 34.7 63 -4.7 23.5
22:15 1023 30.21 852 25.16 1 33.7 66 -4.6 23.7
22:20 1023 30.21 853 25.19 0.7 33.2 68 -4.6 23.7
22:25 1023 30.21 853 25.19 0.6 33.1 67 -4.9 23.2
22:30 1023 30.21 853 25.19 0.7 33.3 65 -5.1 22.8
22:35 1023 30.21 853 25.19 0.9 33.7 65 -4.9 23.2
22:40 1024 30.24 853 25.19 0.8 33.4 67 -4.6 23.7
22:45 1024 30.24 853 25.19 0.8 33.4 67 -4.6 23.7
22:50 1024 30.24 853 25.19 0.7 33.3 68 -4.6 23.8
22:55 1024 30.24 853 25.19 0.9 33.5 73 -3.4 25.9
23:00 1024 30.24 853 25.19 0.8 33.5 79 -2.4 27.7
23:05 1024 30.24 853 25.19 0.6 33 76 -3.2 26.3
23:10 1024 30.24 853 25.19 0.7 33.3 75 -3.2 26.2
23:15 1024 30.24 853 25.19 0.8 33.5 77 -2.8 26.9
23:20 1024 30.24 853 25.19 0.8 33.4 77 -2.8 27
23:25 1024 30.24 853 25.19 0.3 32.6 80 -2.6 27.2
23:30 1024 30.24 853 25.19 0 32 83 -2.5 27.5
23:35 1024 30.24 853 25.19 -0.3 31.5 86 -2.4 27.7
23:40 1024 30.24 853 25.19 -0.5 31.2 87 -2.4 27.6
23:45 1024 30.24 853 25.19 -0.4 31.2 87 -2.4 27.6
23:50 1024 30.24 853 25.19 -0.4 31.2 86 -2.5 27.6
23:55 1024 30.24 853 25.19 -0.5 31.2 86 -2.5 27.5
24:00 1024 30.24 853 25.19 -0.4 31.3 85 -2.6 27.4